Time;durP1;ratioP1;P1;durP2;ratioP2;P2;SDS_P1;SDS_P2;PMS_P1;PMS_P2;Temp;Humidity;BMP_temperature;BMP_pressure;BME280_temperature;BME280_humidity;BME280_pressure;Samples;Min_cycle;Max_cycle;Signal;HPM_P1;HPM_P2
2023/04/02 00:01:00;;;;;;;16.92;10.15;;;;;;;;;;4990660;28;20375;-64
2023/04/02 00:03:52;;;;;;;15.18;9.98;;;;;;;;;;4988746;28;20348;-64
2023/04/02 00:06:33;;;;;;;16.10;11.30;;;;;;;;;;4990647;28;20455;-65
2023/04/02 00:09:16;;;;;;;15.93;10.25;;;;;;;;;;4990662;28;20030;-65
2023/04/02 00:11:47;;;;;;;17.92;10.82;;;;;;;;;;4990643;28;20665;-63
2023/04/02 00:14:21;;;;;;;15.75;10.77;;;;;;;;;;4988553;28;20034;-65
2023/04/02 00:16:47;;;;;;;15.40;10.70;;;;;;;;;;4990343;28;20180;-66
2023/04/02 00:19:17;;;;;;;17.35;10.32;;;;;;;;;;5029895;23;20073;-58
2023/04/02 00:21:45;;;;;;;17.02;10.68;;;;;;;;;;5011989;28;20030;-59
2023/04/02 00:24:15;;;;;;;16.65;10.25;;;;;;;;;;5010922;28;20052;-59
2023/04/02 00:26:45;;;;;;;16.77;10.10;;;;;;;;;;5026694;28;20029;-59
2023/04/02 00:29:12;;;;;;;15.20;9.85;;;;;;;;;;5026898;28;20028;-58
2023/04/02 00:31:40;;;;;;;15.18;9.77;;;;;;;;;;5026817;28;20037;-61
2023/04/02 00:34:07;;;;;;;16.15;10.40;;;;;;;;;;5010794;28;20022;-59
2023/04/02 00:36:34;;;;;;;15.23;9.98;;;;;;;;;;5011481;28;20034;-61
2023/04/02 00:39:01;;;;;;;15.60;10.00;;;;;;;;;;5027065;28;20026;-59
2023/04/02 00:41:29;;;;;;;24.73;17.13;;;;;;;;;;5012149;28;20153;-59
2023/04/02 00:43:56;;;;;;;20.48;11.15;;;;;;;;;;5011202;28;20026;-57
2023/04/02 00:46:24;;;;;;;15.75;10.27;;;;;;;;;;5029433;28;20391;-55
2023/04/02 00:49:14;;;;;;;17.75;11.50;;;;;;;;;;5030520;28;20033;-57
2023/04/02 00:51:52;;;;;;;15.93;11.15;;;;;;;;;;5033201;28;20456;-54
2023/04/02 00:54:20;;;;;;;14.93;10.05;;;;;;;;;;5034366;28;20033;-58
2023/04/02 00:56:47;;;;;;;15.45;10.23;;;;;;;;;;5035177;28;20025;-55
2023/04/02 00:59:24;;;;;;;16.40;10.20;;;;;;;;;;5034966;28;20489;-56
2023/04/02 01:01:53;;;;;;;16.70;10.60;;;;;;;;;;5035130;28;20030;-61
2023/04/02 01:04:35;;;;;;;16.40;10.48;;;;;;;;;;5033109;28;20053;-57
2023/04/02 01:07:06;;;;;;;16.23;10.52;;;;;;;;;;5033795;28;20056;-60
2023/04/02 01:09:55;;;;;;;16.15;10.48;;;;;;;;;;5034669;28;20026;-59
2023/04/02 01:12:20;;;;;;;16.73;10.43;;;;;;;;;;5034399;28;20275;-57
2023/04/02 01:14:51;;;;;;;14.88;9.80;;;;;;;;;;5033716;28;20021;-56
2023/04/02 01:17:57;;;;;;;15.55;10.35;;;;;;;;;;5033372;28;20025;-54
2023/04/02 01:20:41;;;;;;;16.35;10.18;;;;;;;;;;4994639;28;20128;-56
2023/04/02 01:23:13;;;;;;;16.42;10.48;;;;;;;;;;5033883;28;20041;-60
2023/04/02 01:25:54;;;;;;;15.85;10.48;;;;;;;;;;5033492;28;20112;-59
2023/04/02 01:28:25;;;;;;;15.82;10.55;;;;;;;;;;5034498;28;20029;-58
2023/04/02 01:30:53;;;;;;;15.88;10.63;;;;;;;;;;5034633;28;20024;-57
2023/04/02 01:33:23;;;;;;;17.42;10.95;;;;;;;;;;5033533;28;20033;-59
2023/04/02 01:35:58;;;;;;;16.55;11.10;;;;;;;;;;5034621;28;20474;-60
2023/04/02 01:38:28;;;;;;;16.33;11.65;;;;;;;;;;5033402;28;20445;-58
2023/04/02 01:41:07;;;;;;;16.60;11.15;;;;;;;;;;5033333;28;20388;-59
2023/04/02 01:43:46;;;;;;;17.60;11.38;;;;;;;;;;5033730;28;20090;-59
2023/04/02 01:46:39;;;;;;;18.63;12.02;;;;;;;;;;5034390;28;20441;-58
2023/04/02 01:49:13;;;;;;;16.98;11.40;;;;;;;;;;5031832;28;20042;-55
2023/04/02 01:51:41;;;;;;;16.30;11.00;;;;;;;;;;5034218;28;20056;-61
2023/04/02 01:54:08;;;;;;;17.67;11.23;;;;;;;;;;5032228;28;20402;-58
2023/04/02 01:56:34;;;;;;;16.17;11.25;;;;;;;;;;5034070;28;20104;-57
2023/04/02 01:59:01;;;;;;;16.48;11.27;;;;;;;;;;5034470;28;20482;-60
2023/04/02 02:01:48;;;;;;;18.25;11.75;;;;;;;;;;5034039;28;20028;-57
2023/04/02 02:04:14;;;;;;;16.27;11.40;;;;;;;;;;5033058;28;20056;-60
2023/04/02 02:06:40;;;;;;;17.25;11.60;;;;;;;;;;5032545;28;20033;-58
2023/04/02 02:09:08;;;;;;;17.05;11.15;;;;;;;;;;5033561;28;20025;-59
2023/04/02 02:11:35;;;;;;;19.52;11.57;;;;;;;;;;5033740;28;20024;-61
2023/04/02 02:14:21;;;;;;;15.50;10.73;;;;;;;;;;5032971;28;20490;-53
2023/04/02 02:16:47;;;;;;;16.88;11.10;;;;;;;;;;5033623;28;20057;-59
2023/04/02 02:19:23;;;;;;;16.85;11.23;;;;;;;;;;5033462;28;20452;-59
2023/04/02 02:21:53;;;;;;;17.30;11.30;;;;;;;;;;5032170;28;20060;-59
2023/04/02 02:24:30;;;;;;;18.23;10.60;;;;;;;;;;5032883;28;20017;-59
2023/04/02 02:27:04;;;;;;;17.05;11.45;;;;;;;;;;5012857;28;20021;-58
2023/04/02 02:29:31;;;;;;;18.25;11.38;;;;;;;;;;5013473;28;20026;-58
2023/04/02 02:31:59;;;;;;;16.73;11.00;;;;;;;;;;5013299;28;20022;-59
2023/04/02 02:34:30;;;;;;;17.02;11.30;;;;;;;;;;5011374;28;20033;-57
2023/04/02 02:37:01;;;;;;;18.50;11.15;;;;;;;;;;5013515;28;20470;-60
2023/04/02 02:39:27;;;;;;;18.30;11.70;;;;;;;;;;5013451;28;20057;-58
2023/04/02 02:41:56;;;;;;;23.27;13.98;;;;;;;;;;5013347;28;20064;-58
2023/04/02 02:44:28;;;;;;;19.13;12.25;;;;;;;;;;5012607;28;20112;-61
2023/04/02 02:46:56;;;;;;;18.63;12.70;;;;;;;;;;5013290;28;20026;-58
2023/04/02 02:49:27;;;;;;;19.23;12.20;;;;;;;;;;5028304;28;20033;-57
2023/04/02 02:51:58;;;;;;;19.48;12.63;;;;;;;;;;5013445;28;20040;-60
2023/04/02 02:54:25;;;;;;;19.67;12.43;;;;;;;;;;5012479;28;20030;-59
2023/04/02 02:56:54;;;;;;;18.98;11.90;;;;;;;;;;5013170;28;20101;-58
2023/04/02 02:59:21;;;;;;;17.70;11.93;;;;;;;;;;5012937;28;20018;-60
2023/04/02 03:01:47;;;;;;;18.92;11.70;;;;;;;;;;5011808;28;20025;-60
2023/04/02 03:04:19;;;;;;;19.25;12.50;;;;;;;;;;5012186;28;20022;-61
2023/04/02 03:06:47;;;;;;;21.88;12.38;;;;;;;;;;5011764;28;20034;-60
2023/04/02 03:09:22;;;;;;;18.75;11.98;;;;;;;;;;5012061;28;20073;-60
2023/04/02 03:12:02;;;;;;;18.42;12.60;;;;;;;;;;5011583;28;20025;-58
2023/04/02 03:14:46;;;;;;;18.75;12.05;;;;;;;;;;5012310;28;20109;-57
2023/04/02 03:17:17;;;;;;;21.88;13.70;;;;;;;;;;5012932;28;20041;-58
2023/04/02 03:20:00;;;;;;;21.15;13.10;;;;;;;;;;5012603;28;20033;-58
2023/04/02 03:22:30;;;;;;;18.55;12.10;;;;;;;;;;5011429;28;20026;-61
2023/04/02 03:25:03;;;;;;;22.23;12.18;;;;;;;;;;5011958;28;20022;-51
2023/04/02 03:27:32;;;;;;;18.85;12.15;;;;;;;;;;5011218;28;20033;-59
2023/04/02 03:29:58;;;;;;;21.80;12.35;;;;;;;;;;5012799;28;20026;-58
2023/04/02 03:32:27;;;;;;;18.25;11.48;;;;;;;;;;5012165;28;20029;-58
2023/04/02 03:34:57;;;;;;;21.50;11.27;;;;;;;;;;5010147;28;20026;-56
2023/04/02 03:37:23;;;;;;;18.35;11.00;;;;;;;;;;5011102;28;20509;-61
2023/04/02 03:39:49;;;;;;;20.58;11.73;;;;;;;;;;5011146;28;20034;-60
2023/04/02 03:42:24;;;;;;;17.20;11.30;;;;;;;;;;5012181;28;20494;-62
2023/04/02 03:44:50;;;;;;;19.10;11.32;;;;;;;;;;5010384;28;20394;-59
2023/04/02 03:47:18;;;;;;;19.67;11.25;;;;;;;;;;5011007;28;20022;-61
2023/04/02 03:49:44;;;;;;;;;;;;;;;;;;5011605;28;20082;-60
2023/04/02 03:52:11;;;;;;;19.50;11.82;;;;;;;;;;5012020;28;19932;-59
2023/04/02 03:54:38;;;;;;;18.75;11.10;;;;;;;;;;5010223;28;20041;-60
2023/04/02 03:57:07;;;;;;;21.00;11.70;;;;;;;;;;5012079;28;20033;-56
2023/04/02 03:59:33;;;;;;;20.20;11.98;;;;;;;;;;5011946;28;20057;-58
2023/04/02 04:02:02;;;;;;;19.17;11.57;;;;;;;;;;5010834;28;20068;-57
2023/04/02 04:04:28;;;;;;;;;;;;;;;;;;5011635;28;20036;-58
2023/04/02 04:06:56;;;;;;;17.67;11.13;;;;;;;;;;5011797;28;20003;-58
2023/04/02 04:09:22;;;;;;;17.83;11.48;;;;;;;;;;5010710;28;20108;-60
2023/04/02 04:11:49;;;;;;;18.70;11.07;;;;;;;;;;5011867;28;20487;-61
2023/04/02 04:14:16;;;;;;;18.15;11.00;;;;;;;;;;5010218;28;20459;-59
2023/04/02 04:16:46;;;;;;;20.05;10.57;;;;;;;;;;5011690;28;20116;-58
2023/04/02 04:19:18;;;;;;;19.42;11.30;;;;;;;;;;5012557;28;20041;-60
2023/04/02 04:21:45;;;;;;;19.92;11.50;;;;;;;;;;5016027;28;20022;-60
2023/04/02 04:24:32;;;;;;;16.90;10.50;;;;;;;;;;5015131;28;20091;-59
2023/04/02 04:27:02;;;;;;;19.13;10.65;;;;;;;;;;5015396;28;20034;-59
2023/04/02 04:29:37;;;;;;;18.40;10.70;;;;;;;;;;5015896;28;20045;-59
2023/04/02 04:32:25;;;;;;;19.60;10.98;;;;;;;;;;5014541;28;20022;-56
2023/04/02 04:34:55;;;;;;;19.10;10.77;;;;;;;;;;5013767;28;20383;-59
2023/04/02 04:37:25;;;;;;;17.00;9.82;;;;;;;;;;5015667;28;20087;-57
2023/04/02 04:39:59;;;;;;;19.08;10.80;;;;;;;;;;5015592;28;20026;-59
2023/04/02 04:42:28;;;;;;;18.65;10.48;;;;;;;;;;5015520;28;20033;-60
2023/04/02 04:45:12;;;;;;;17.60;10.65;;;;;;;;;;5014557;28;20030;-58
2023/04/02 04:47:40;;;;;;;18.52;10.80;;;;;;;;;;5014242;28;20055;-59
2023/04/02 04:50:26;;;;;;;18.88;10.35;;;;;;;;;;5015499;28;20033;-59
2023/04/02 04:52:52;;;;;;;16.48;10.63;;;;;;;;;;4993906;28;20030;-59
2023/04/02 04:55:38;;;;;;;20.42;10.70;;;;;;;;;;5013511;28;20029;-61
2023/04/02 04:58:10;;;;;;;18.67;10.70;;;;;;;;;;5015043;28;20045;-58
2023/04/02 05:00:48;;;;;;;17.15;10.35;;;;;;;;;;5015268;28;20033;-61
2023/04/02 05:03:35;;;;;;;16.70;10.48;;;;;;;;;;5014416;28;20102;-58
2023/04/02 05:06:06;;;;;;;16.80;9.98;;;;;;;;;;5015123;28;20041;-59
2023/04/02 05:08:34;;;;;;;17.98;11.00;;;;;;;;;;5015177;28;20061;-60
2023/04/02 05:11:03;;;;;;;18.03;11.03;;;;;;;;;;5015155;28;20437;-55
2023/04/02 05:13:49;;;;;;;17.02;10.05;;;;;;;;;;5012963;28;20057;-57
2023/04/02 05:16:15;;;;;;;17.88;10.38;;;;;;;;;;5014934;28;20077;-59
2023/04/02 05:18:44;;;;;;;16.77;10.13;;;;;;;;;;5014591;28;20057;-60
2023/04/02 05:21:13;;;;;;;16.13;9.75;;;;;;;;;;5010994;28;20037;-57
2023/04/02 05:23:45;;;;;;;16.33;9.40;;;;;;;;;;5013927;28;20036;-57
2023/04/02 05:26:16;;;;;;;17.85;9.35;;;;;;;;;;5014967;28;20022;-61
2023/04/02 05:28:45;;;;;;;16.17;10.02;;;;;;;;;;5013759;28;20045;-59
2023/04/02 05:31:16;;;;;;;17.27;9.90;;;;;;;;;;5012739;28;20115;-59
2023/04/02 05:33:44;;;;;;;15.00;9.45;;;;;;;;;;5013702;28;20029;-56
2023/04/02 05:36:10;;;;;;;;;;;;;;;;;;5014826;28;20076;-60
2023/04/02 05:38:38;;;;;;;17.90;9.90;;;;;;;;;;5014311;28;20316;-60
2023/04/02 05:41:07;;;;;;;16.73;9.90;;;;;;;;;;5014258;28;20139;-60
2023/04/02 05:43:36;;;;;;;18.05;9.68;;;;;;;;;;5013560;28;20152;-61
2023/04/02 05:46:06;;;;;;;16.80;9.88;;;;;;;;;;5014105;28;20079;-61
2023/04/02 05:48:38;;;;;;;17.98;10.30;;;;;;;;;;5014157;28;20068;-60
2023/04/02 05:51:07;;;;;;;20.42;10.40;;;;;;;;;;5012931;28;20450;-61
2023/04/02 05:53:35;;;;;;;18.40;10.00;;;;;;;;;;5013497;28;20492;-59
2023/04/02 05:56:01;;;;;;;18.60;9.80;;;;;;;;;;5014244;28;20036;-60
2023/04/02 05:58:41;;;;;;;17.77;10.65;;;;;;;;;;4665295;28;10000274;-60
2023/04/02 06:01:16;;;;;;;15.65;9.82;;;;;;;;;;5010123;28;20100;-59
2023/04/02 06:03:45;;;;;;;16.50;9.98;;;;;;;;;;5009753;28;20510;-59
2023/04/02 06:06:30;;;;;;;18.58;10.27;;;;;;;;;;5010669;28;20026;-58
2023/04/02 06:09:02;;;;;;;15.73;9.40;;;;;;;;;;4994960;28;20026;-60
2023/04/02 06:11:31;;;;;;;16.58;9.95;;;;;;;;;;4990802;28;20039;-60
2023/04/02 06:13:57;;;;;;;19.15;10.68;;;;;;;;;;4990498;28;20038;-58
2023/04/02 06:16:26;;;;;;;19.13;9.85;;;;;;;;;;4996868;28;20030;-58
2023/04/02 06:18:52;;;;;;;17.65;9.65;;;;;;;;;;5024812;23;20053;-62
2023/04/02 06:21:19;;;;;;;16.73;9.93;;;;;;;;;;4642814;28;10000307;-60
2023/04/02 06:23:52;;;;;;;16.63;10.05;;;;;;;;;;4987882;28;20494;-58
2023/04/02 06:26:31;;;;;;;17.67;9.85;;;;;;;;;;4990972;28;20023;-60
2023/04/02 06:29:01;;;;;;;18.90;11.15;;;;;;;;;;4990196;28;20150;-60
2023/04/02 06:31:27;;;;;;;18.77;10.63;;;;;;;;;;4971957;28;20026;-60
2023/04/02 06:33:55;;;;;;;17.27;10.15;;;;;;;;;;4980422;28;20034;-60
2023/04/02 06:36:21;;;;;;;16.65;9.10;;;;;;;;;;4990565;28;20027;-59
2023/04/02 06:38:48;;;;;;;22.33;10.05;;;;;;;;;;4989112;28;20064;-59
2023/04/02 06:41:17;;;;;;;15.93;10.07;;;;;;;;;;4990646;28;20376;-61
2023/04/02 06:43:45;;;;;;;18.33;9.90;;;;;;;;;;4988673;28;20149;-65
2023/04/02 06:46:37;;;;;;;17.20;10.30;;;;;;;;;;4991383;28;20442;-64
2023/04/02 06:49:39;;;;;;;16.85;10.25;;;;;;;;;;4989178;28;20130;-65
2023/04/02 06:52:10;;;;;;;15.25;9.52;;;;;;;;;;4952282;28;20583;-65
2023/04/02 06:54:36;;;;;;;17.90;10.43;;;;;;;;;;4985427;28;20038;-66
2023/04/02 06:57:04;;;;;;;17.33;10.00;;;;;;;;;;4973796;28;20111;-66
2023/04/02 06:59:30;;;;;;;18.60;10.23;;;;;;;;;;4972472;28;20031;-63
2023/04/02 07:02:05;;;;;;;17.83;10.02;;;;;;;;;;4973732;28;20050;-62
2023/04/02 07:04:31;;;;;;;20.08;9.93;;;;;;;;;;4972817;28;20027;-64
2023/04/02 07:06:57;;;;;;;15.40;10.07;;;;;;;;;;4974714;28;20090;-64
2023/04/02 07:09:24;;;;;;;16.58;9.57;;;;;;;;;;4992782;28;20053;-64
2023/04/02 07:11:50;;;;;;;16.58;9.77;;;;;;;;;;4992895;28;20026;-65
2023/04/02 07:14:16;;;;;;;15.90;9.32;;;;;;;;;;4992210;28;20430;-64
2023/04/02 07:16:43;;;;;;;16.50;9.02;;;;;;;;;;4992674;28;20045;-65
2023/04/02 07:19:16;;;;;;;17.52;9.50;;;;;;;;;;4992710;28;20042;-63
2023/04/02 07:21:42;;;;;;;17.25;9.43;;;;;;;;;;4992448;28;20568;-63
2023/04/02 07:24:08;;;;;;;18.10;9.30;;;;;;;;;;4990029;28;20030;-64
2023/04/02 07:26:34;;;;;;;16.25;9.55;;;;;;;;;;4992127;28;20108;-63
2023/04/02 07:29:00;;;;;;;14.90;9.07;;;;;;;;;;4991796;28;20105;-63
2023/04/02 07:31:27;;;;;;;17.20;9.45;;;;;;;;;;4989357;28;20145;-65
2023/04/02 07:33:58;;;;;;;16.27;9.27;;;;;;;;;;4991515;28;20034;-62
2023/04/02 07:36:25;;;;;;;16.60;9.88;;;;;;;;;;4988653;28;20033;-63
2023/04/02 07:38:51;;;;;;;17.58;10.00;;;;;;;;;;4990507;28;20050;-63
2023/04/02 07:41:18;;;;;;;14.63;9.43;;;;;;;;;;4991734;28;20022;-63
2023/04/02 07:43:44;;;;;;;16.10;9.32;;;;;;;;;;4990833;28;20025;-63
2023/04/02 07:46:12;;;;;;;17.80;9.98;;;;;;;;;;4991682;28;20026;-63
2023/04/02 07:48:39;;;;;;;15.27;9.50;;;;;;;;;;4987831;28;20033;-63
2023/04/02 07:51:12;;;;;;;15.60;9.20;;;;;;;;;;4991987;28;20025;-63
2023/04/02 07:53:38;;;;;;;17.35;9.73;;;;;;;;;;4991099;28;20034;-61
2023/04/02 07:56:04;;;;;;;15.15;9.82;;;;;;;;;;4992003;28;20117;-61
2023/04/02 07:58:31;;;;;;;15.75;9.88;;;;;;;;;;4992247;28;20034;-57
2023/04/02 08:00:58;;;;;;;19.98;9.75;;;;;;;;;;4992235;28;20034;-63
2023/04/02 08:03:24;;;;;;;16.02;9.50;;;;;;;;;;4991239;28;20088;-61
2023/04/02 08:05:52;;;;;;;16.55;10.38;;;;;;;;;;4992099;28;20070;-61
2023/04/02 08:08:18;;;;;;;15.55;9.13;;;;;;;;;;4991978;28;20459;-63
2023/04/02 08:10:44;;;;;;;16.27;9.27;;;;;;;;;;4990833;28;20050;-63
2023/04/02 08:13:10;;;;;;;20.63;9.82;;;;;;;;;;4989912;28;20105;-63
2023/04/02 08:15:36;;;;;;;15.95;9.00;;;;;;;;;;4991675;28;20041;-65
2023/04/02 08:18:02;;;;;;;15.48;9.48;;;;;;;;;;4990518;28;20395;-63
2023/04/02 08:20:28;;;;;;;15.73;8.95;;;;;;;;;;4992364;28;20038;-60
2023/04/02 08:22:55;;;;;;;15.43;9.25;;;;;;;;;;4991562;28;20027;-62
2023/04/02 08:25:21;;;;;;;15.98;9.50;;;;;;;;;;4991365;28;20023;-62
2023/04/02 08:27:48;;;;;;;15.65;8.95;;;;;;;;;;4991912;28;20023;-63
2023/04/02 08:30:14;;;;;;;15.80;9.48;;;;;;;;;;4990771;28;20088;-60
2023/04/02 08:32:40;;;;;;;15.57;8.85;;;;;;;;;;4991786;28;20106;-64
2023/04/02 08:35:07;;;;;;;16.33;9.57;;;;;;;;;;4990417;28;20038;-65
2023/04/02 08:37:33;;;;;;;17.60;9.00;;;;;;;;;;4990911;28;20030;-62
2023/04/02 08:39:59;;;;;;;15.52;8.90;;;;;;;;;;4991017;28;20031;-61
2023/04/02 08:42:32;;;;;;;14.80;8.73;;;;;;;;;;4990456;28;20030;-63
2023/04/02 08:45:16;;;;;;;15.02;8.98;;;;;;;;;;4990685;28;20030;-61
2023/04/02 08:47:46;;;;;;;13.98;8.32;;;;;;;;;;4991692;28;20391;-62
2023/04/02 08:50:11;;;;;;;16.70;8.57;;;;;;;;;;4990298;28;20022;-60
2023/04/02 08:52:38;;;;;;;15.90;8.95;;;;;;;;;;4991405;28;20035;-61
2023/04/02 08:55:12;;;;;;;14.90;8.90;;;;;;;;;;4989554;28;20447;-62
2023/04/02 08:57:38;;;;;;;14.45;8.38;;;;;;;;;;4990468;28;20360;-63
2023/04/02 09:00:21;;;;;;;14.27;8.82;;;;;;;;;;4990200;28;20019;-62
2023/04/02 09:02:52;;;;;;;18.08;8.50;;;;;;;;;;4991649;28;20100;-64
2023/04/02 09:05:23;;;;;;;15.10;9.00;;;;;;;;;;4990744;28;20089;-64
2023/04/02 09:07:51;;;;;;;16.13;8.60;;;;;;;;;;4994596;28;20447;-63
2023/04/02 09:10:17;;;;;;;15.88;8.90;;;;;;;;;;4995169;28;20501;-63
2023/04/02 09:12:46;;;;;;;15.13;8.70;;;;;;;;;;4995178;28;20113;-62
2023/04/02 09:15:11;;;;;;;15.07;9.02;;;;;;;;;;4994192;28;20523;-63
2023/04/02 09:17:38;;;;;;;14.55;8.57;;;;;;;;;;4995104;28;20109;-62
2023/04/02 09:20:16;;;;;;;17.58;9.07;;;;;;;;;;4995542;28;20088;-63
2023/04/02 09:22:42;;;;;;;15.30;9.20;;;;;;;;;;4995088;28;20026;-62
2023/04/02 09:25:13;;;;;;;15.23;8.80;;;;;;;;;;4993962;28;20057;-63
2023/04/02 09:27:39;;;;;;;13.93;8.52;;;;;;;;;;4993350;28;20101;-64
2023/04/02 09:30:24;;;;;;;15.85;9.25;;;;;;;;;;4994640;28;20018;-59
2023/04/02 09:32:50;;;;;;;17.17;9.23;;;;;;;;;;4994962;28;20027;-61
2023/04/02 09:35:16;;;;;;;15.70;9.20;;;;;;;;;;4994189;28;20022;-61
2023/04/02 09:37:43;;;;;;;14.93;9.10;;;;;;;;;;4994827;28;20049;-63
2023/04/02 09:40:30;;;;;;;15.02;9.07;;;;;;;;;;4994843;28;20033;-62
2023/04/02 09:43:05;;;;;;;16.58;9.45;;;;;;;;;;4994328;28;20058;-61
2023/04/02 09:45:31;;;;;;;15.77;9.55;;;;;;;;;;4994553;28;20023;-63
2023/04/02 09:47:57;;;;;;;15.88;9.55;;;;;;;;;;4992879;28;20042;-62
2023/04/02 09:50:26;;;;;;;14.70;9.48;;;;;;;;;;4992994;28;20046;-63
2023/04/02 09:52:52;;;;;;;15.13;9.63;;;;;;;;;;4994229;28;20499;-63
2023/04/02 09:55:24;;;;;;;16.88;9.60;;;;;;;;;;4993738;28;20022;-63
2023/04/02 09:57:50;;;;;;;16.52;9.73;;;;;;;;;;4994576;28;20023;-60
2023/04/02 10:00:25;;;;;;;15.48;9.98;;;;;;;;;;4993439;28;20438;-61
2023/04/02 10:03:10;;;;;;;16.85;9.88;;;;;;;;;;4994136;28;20415;-63
2023/04/02 10:05:36;;;;;;;19.67;9.93;;;;;;;;;;4988393;28;20074;-63
2023/04/02 10:08:07;;;;;;;15.18;9.43;;;;;;;;;;4985316;28;20435;-63
2023/04/02 10:10:42;;;;;;;14.70;9.60;;;;;;;;;;4993590;28;20026;-63
2023/04/02 10:13:16;;;;;;;15.75;10.63;;;;;;;;;;4973680;28;20118;-61
2023/04/02 10:15:51;;;;;;;15.35;9.40;;;;;;;;;;4974622;28;20018;-62
2023/04/02 10:18:27;;;;;;;15.20;9.88;;;;;;;;;;4992028;28;20030;-60
2023/04/02 10:20:54;;;;;;;16.60;9.90;;;;;;;;;;4993376;28;20026;-63
2023/04/02 10:23:23;;;;;;;14.85;9.95;;;;;;;;;;4991192;28;20034;-61
2023/04/02 10:25:53;;;;;;;15.63;10.02;;;;;;;;;;4993030;28;20479;-63
2023/04/02 10:28:28;;;;;;;15.60;10.40;;;;;;;;;;4992859;28;20030;-63
2023/04/02 10:31:03;;;;;;;16.38;10.05;;;;;;;;;;4993210;28;20026;-62
2023/04/02 10:33:40;;;;;;;15.35;10.30;;;;;;;;;;4990436;28;20026;-62
2023/04/02 10:36:11;;;;;;;16.73;10.50;;;;;;;;;;4990935;28;20045;-63
2023/04/02 10:38:55;;;;;;;16.40;10.63;;;;;;;;;;4993470;28;20448;-62
2023/04/02 10:41:22;;;;;;;16.65;10.63;;;;;;;;;;4993457;28;20514;-60
2023/04/02 10:43:59;;;;;;;17.65;10.73;;;;;;;;;;4992175;28;20452;-60
2023/04/02 10:46:28;;;;;;;17.75;10.40;;;;;;;;;;5001864;28;20100;-60
2023/04/02 10:48:54;;;;;;;15.85;10.90;;;;;;;;;;5011059;28;20057;-62
2023/04/02 10:51:39;;;;;;;17.02;10.60;;;;;;;;;;5012543;28;20124;-62
2023/04/02 10:54:26;;;;;;;15.48;10.43;;;;;;;;;;5011882;28;20490;-60
2023/04/02 10:56:53;;;;;;;17.67;10.93;;;;;;;;;;4991485;28;20106;-60
2023/04/02 10:59:25;;;;;;;14.90;10.57;;;;;;;;;;4991955;28;20281;-63
2023/04/02 11:01:53;;;;;;;17.13;10.73;;;;;;;;;;4992751;28;20052;-62
2023/04/02 11:04:21;;;;;;;15.82;10.25;;;;;;;;;;4989705;28;20023;-61
2023/04/02 11:07:07;;;;;;;15.38;10.30;;;;;;;;;;4992457;28;20030;-60
2023/04/02 11:09:38;;;;;;;17.75;10.45;;;;;;;;;;4989101;28;20027;-58
2023/04/02 11:12:05;;;;;;;15.00;10.32;;;;;;;;;;4993233;28;20034;-57
2023/04/02 11:14:31;;;;;;;18.58;10.65;;;;;;;;;;4990720;28;20030;-60
2023/04/02 11:16:59;;;;;;;17.55;10.68;;;;;;;;;;4992567;28;20427;-60
2023/04/02 11:19:26;;;;;;;16.30;10.07;;;;;;;;;;4642493;28;9999957;-62
2023/04/02 11:22:02;;;;;;;16.67;10.48;;;;;;;;;;4987146;28;20060;-61
2023/04/02 11:24:35;;;;;;;15.98;10.20;;;;;;;;;;4988220;28;20065;-61
2023/04/02 11:27:10;;;;;;;17.25;10.88;;;;;;;;;;4986963;28;20022;-61
2023/04/02 11:29:40;;;;;;;17.35;11.07;;;;;;;;;;4987413;28;20588;-63
2023/04/02 11:32:27;;;;;;;16.23;11.68;;;;;;;;;;4987498;28;20026;-61
2023/04/02 11:34:53;;;;;;;16.15;11.68;;;;;;;;;;4985156;28;20031;-63
2023/04/02 11:37:37;;;;;;;16.85;11.68;;;;;;;;;;4987948;28;20604;-61
2023/04/02 11:40:26;;;;;;;15.88;11.07;;;;;;;;;;4989119;28;20038;-60
2023/04/02 11:42:54;;;;;;;17.23;11.30;;;;;;;;;;4988621;28;20026;-62
2023/04/02 11:45:23;;;;;;;16.67;11.05;;;;;;;;;;4971367;28;20038;-60
2023/04/02 11:48:02;;;;;;;17.45;11.43;;;;;;;;;;4987868;28;20034;-62
2023/04/02 11:50:28;;;;;;;18.45;11.77;;;;;;;;;;4988448;28;20050;-64
2023/04/02 11:52:56;;;;;;;17.25;11.65;;;;;;;;;;4989095;28;20089;-61
2023/04/02 11:55:32;;;;;;;16.75;10.85;;;;;;;;;;4987399;28;20050;-60
2023/04/02 11:58:01;;;;;;;18.67;11.15;;;;;;;;;;4991432;28;20030;-60
2023/04/02 12:00:40;;;;;;;19.70;11.50;;;;;;;;;;4990740;28;20023;-62
2023/04/02 12:03:12;;;;;;;16.15;10.82;;;;;;;;;;4989672;28;20096;-61
2023/04/02 12:06:02;;;;;;;17.02;10.70;;;;;;;;;;4988304;28;20097;-58
2023/04/02 12:08:35;;;;;;;16.02;11.18;;;;;;;;;;4941853;28;20499;-57
2023/04/02 12:11:02;;;;;;;16.13;10.38;;;;;;;;;;4972680;28;20038;-61
2023/04/02 12:13:40;;;;;;;15.77;10.60;;;;;;;;;;4986799;28;20046;-63
2023/04/02 12:16:07;;;;;;;15.85;10.43;;;;;;;;;;4988734;28;20030;-64
2023/04/02 12:18:34;;;;;;;16.08;10.90;;;;;;;;;;5012920;23;20027;-61
2023/04/02 12:21:00;;;;;;;15.93;10.35;;;;;;;;;;4978595;28;20495;-61
2023/04/02 12:23:30;;;;;;;16.98;11.00;;;;;;;;;;4988113;28;20041;-61
2023/04/02 12:26:07;;;;;;;14.82;10.27;;;;;;;;;;4989020;28;20031;-62
2023/04/02 12:28:36;;;;;;;15.80;11.10;;;;;;;;;;4989103;28;20078;-60
2023/04/02 12:31:13;;;;;;;16.60;11.05;;;;;;;;;;4988128;28;20033;-61
2023/04/02 12:33:39;;;;;;;19.80;11.70;;;;;;;;;;4980354;28;20072;-60
2023/04/02 12:36:26;;;;;;;17.52;11.80;;;;;;;;;;4988993;28;20031;-63
2023/04/02 12:38:53;;;;;;;16.40;11.85;;;;;;;;;;4988225;28;20032;-60
2023/04/02 12:41:28;;;;;;;17.30;11.57;;;;;;;;;;4986723;28;20113;-60
2023/04/02 12:43:58;;;;;;;16.33;10.80;;;;;;;;;;4991874;28;20513;-63
2023/04/02 12:46:25;;;;;;;15.30;11.23;;;;;;;;;;4992990;28;20041;-60
2023/04/02 12:49:04;;;;;;;15.13;10.73;;;;;;;;;;4992255;28;20356;-63
2023/04/02 12:51:30;;;;;;;;;;;;;;;;;;4992038;28;20026;-60
2023/04/02 12:53:56;;;;;;;16.65;10.65;;;;;;;;;;4988433;28;20381;-63
2023/04/02 12:56:22;;;;;;;16.40;10.70;;;;;;;;;;4992562;28;20054;-62
2023/04/02 12:58:58;;;;;;;15.40;10.20;;;;;;;;;;4992558;28;20038;-62
2023/04/02 13:01:30;;;;;;;15.43;10.93;;;;;;;;;;4992675;28;20030;-62
2023/04/02 13:04:02;;;;;;;18.33;10.93;;;;;;;;;;4990043;28;20026;-63
2023/04/02 13:06:29;;;;;;;14.75;10.68;;;;;;;;;;4988778;28;20121;-63
2023/04/02 13:08:55;;;;;;;15.80;11.38;;;;;;;;;;4990487;28;20025;-64
2023/04/02 13:11:22;;;;;;;17.05;10.77;;;;;;;;;;4992375;28;20031;-61
2023/04/02 13:13:49;;;;;;;15.27;10.52;;;;;;;;;;4991797;28;20018;-62
2023/04/02 13:16:15;;;;;;;15.60;10.70;;;;;;;;;;4988571;28;20031;-59
2023/04/02 13:18:41;;;;;;;16.42;10.95;;;;;;;;;;4991859;28;20375;-61
2023/04/02 13:21:17;;;;;;;15.45;10.70;;;;;;;;;;4993791;28;20109;-65
2023/04/02 13:23:44;;;;;;;16.45;11.30;;;;;;;;;;4993927;28;20073;-60
2023/04/02 13:26:10;;;;;;;15.98;11.50;;;;;;;;;;4995056;28;20026;-62
2023/04/02 13:28:37;;;;;;;16.90;11.75;;;;;;;;;;4994844;28;20038;-63
2023/04/02 13:31:03;;;;;;;17.02;12.45;;;;;;;;;;4995025;28;20061;-61
2023/04/02 13:33:29;;;;;;;15.43;10.75;;;;;;;;;;5006255;28;20054;-63
2023/04/02 13:35:55;;;;;;;16.95;12.18;;;;;;;;;;5013180;28;20538;-62
2023/04/02 13:38:21;;;;;;;15.65;11.15;;;;;;;;;;4994745;28;20030;-61
2023/04/02 13:40:47;;;;;;;17.75;12.30;;;;;;;;;;4994600;28;20018;-63
2023/04/02 13:43:16;;;;;;;16.08;11.68;;;;;;;;;;4992842;28;20022;-62
2023/04/02 13:45:42;;;;;;;17.15;12.10;;;;;;;;;;4994956;28;20128;-62
2023/04/02 13:48:12;;;;;;;16.23;11.45;;;;;;;;;;4994735;28;20026;-61
2023/04/02 13:50:38;;;;;;;15.82;11.35;;;;;;;;;;4991189;28;20030;-62
2023/04/02 13:53:06;;;;;;;16.17;11.32;;;;;;;;;;4993370;28;20019;-63
2023/04/02 13:55:36;;;;;;;16.08;11.55;;;;;;;;;;4994160;28;20049;-63
2023/04/02 13:58:03;;;;;;;17.92;11.27;;;;;;;;;;4994389;28;20027;-59
2023/04/02 14:00:29;;;;;;;16.73;11.00;;;;;;;;;;4992800;28;20029;-63
2023/04/02 14:02:58;;;;;;;15.95;10.98;;;;;;;;;;4992658;28;20124;-60
2023/04/02 14:05:45;;;;;;;16.23;11.60;;;;;;;;;;4992441;28;20483;-62
2023/04/02 14:08:11;;;;;;;17.65;11.05;;;;;;;;;;4994332;28;20026;-61
2023/04/02 14:10:37;;;;;;;16.95;11.40;;;;;;;;;;4993644;28;20042;-60
2023/04/02 14:13:21;;;;;;;17.70;11.15;;;;;;;;;;4992951;28;20054;-58
2023/04/02 14:15:47;;;;;;;15.10;11.00;;;;;;;;;;4991621;28;20022;-62
2023/04/02 14:18:16;;;;;;;16.83;12.00;;;;;;;;;;4992416;28;20053;-64
2023/04/02 14:20:48;;;;;;;17.42;11.20;;;;;;;;;;4985568;28;20526;-63
2023/04/02 14:23:17;;;;;;;15.77;11.00;;;;;;;;;;4992725;28;20065;-58
2023/04/02 14:25:49;;;;;;;16.25;11.57;;;;;;;;;;4992030;28;20022;-62
2023/04/02 14:28:15;;;;;;;15.43;10.55;;;;;;;;;;4993563;28;20033;-61
2023/04/02 14:30:51;;;;;;;17.17;10.70;;;;;;;;;;4990546;28;20076;-62
2023/04/02 14:33:17;;;;;;;17.83;11.30;;;;;;;;;;4991417;28;20058;-60
2023/04/02 14:35:45;;;;;;;15.80;11.20;;;;;;;;;;4993409;28;20050;-61
2023/04/02 14:38:31;;;;;;;15.93;10.77;;;;;;;;;;4299692;28;10021622;-62
2023/04/02 14:41:16;;;;;;;16.90;11.05;;;;;;;;;;4981194;28;20037;-63
2023/04/02 14:43:45;;;;;;;17.10;11.45;;;;;;;;;;4988665;28;20034;-63